sensor_id;sensor_type;location;lat;lon;timestamp;P1;durP1;ratioP1;P2;durP2;ratioP2
15061;SDS011;7630;50.306;8.566;2023-03-01T00:02:58;28.57;;;22.70;;
15061;SDS011;7630;50.306;8.566;2023-03-01T00:06:59;27.47;;;22.47;;
15061;SDS011;7630;50.306;8.566;2023-03-01T00:11:22;27.97;;;23.33;;
15061;SDS011;7630;50.306;8.566;2023-03-01T00:15:04;26.33;;;23.07;;
15061;SDS011;7630;50.306;8.566;2023-03-01T00:19:06;23.90;;;20.57;;
15061;SDS011;7630;50.306;8.566;2023-03-01T00:23:09;28.50;;;22.67;;
15061;SDS011;7630;50.306;8.566;2023-03-01T00:27:11;26.90;;;23.00;;
15061;SDS011;7630;50.306;8.566;2023-03-01T00:31:13;23.27;;;20.83;;
15061;SDS011;7630;50.306;8.566;2023-03-01T00:35:16;26.00;;;21.67;;
15061;SDS011;7630;50.306;8.566;2023-03-01T00:39:17;25.20;;;22.60;;
15061;SDS011;7630;50.306;8.566;2023-03-01T00:43:18;25.27;;;22.03;;
15061;SDS011;7630;50.306;8.566;2023-03-01T00:47:19;28.07;;;22.00;;
15061;SDS011;7630;50.306;8.566;2023-03-01T00:51:26;31.50;;;24.00;;
15061;SDS011;7630;50.306;8.566;2023-03-01T00:55:25;31.10;;;23.77;;
15061;SDS011;7630;50.306;8.566;2023-03-01T00:59:27;28.23;;;23.47;;
15061;SDS011;7630;50.306;8.566;2023-03-01T01:03:28;32.00;;;25.30;;
15061;SDS011;7630;50.306;8.566;2023-03-01T01:07:29;26.27;;;23.47;;
15061;SDS011;7630;50.306;8.566;2023-03-01T01:11:30;26.10;;;23.30;;
15061;SDS011;7630;50.306;8.566;2023-03-01T01:15:35;36.20;;;24.10;;
15061;SDS011;7630;50.306;8.566;2023-03-01T01:19:36;28.57;;;25.27;;
15061;SDS011;7630;50.306;8.566;2023-03-01T01:23:38;26.10;;;23.30;;
15061;SDS011;7630;50.306;8.566;2023-03-01T01:27:40;27.47;;;22.90;;
15061;SDS011;7630;50.306;8.566;2023-03-01T01:31:42;30.30;;;25.00;;
15061;SDS011;7630;50.306;8.566;2023-03-01T01:35:44;32.17;;;25.30;;
15061;SDS011;7630;50.306;8.566;2023-03-01T01:39:46;27.63;;;23.70;;
15061;SDS011;7630;50.306;8.566;2023-03-01T01:43:49;27.77;;;23.67;;
15061;SDS011;7630;50.306;8.566;2023-03-01T01:47:52;31.30;;;26.03;;
15061;SDS011;7630;50.306;8.566;2023-03-01T01:52:02;29.43;;;25.77;;
15061;SDS011;7630;50.306;8.566;2023-03-01T01:56:02;27.33;;;23.03;;
15061;SDS011;7630;50.306;8.566;2023-03-01T02:00:05;27.00;;;23.67;;
15061;SDS011;7630;50.306;8.566;2023-03-01T02:04:14;30.73;;;25.83;;
15061;SDS011;7630;50.306;8.566;2023-03-01T02:08:16;29.33;;;25.03;;
15061;SDS011;7630;50.306;8.566;2023-03-01T02:12:21;30.07;;;23.37;;
15061;SDS011;7630;50.306;8.566;2023-03-01T02:16:25;27.37;;;23.90;;
15061;SDS011;7630;50.306;8.566;2023-03-01T02:28:59;30.40;;;25.03;;
15061;SDS011;7630;50.306;8.566;2023-03-01T02:33:00;26.50;;;23.50;;
15061;SDS011;7630;50.306;8.566;2023-03-01T02:37:07;35.17;;;25.97;;
15061;SDS011;7630;50.306;8.566;2023-03-01T02:41:10;30.57;;;24.10;;
15061;SDS011;7630;50.306;8.566;2023-03-01T02:45:14;34.97;;;26.60;;
15061;SDS011;7630;50.306;8.566;2023-03-01T02:49:16;32.60;;;27.57;;
15061;SDS011;7630;50.306;8.566;2023-03-01T02:53:25;31.50;;;25.37;;
15061;SDS011;7630;50.306;8.566;2023-03-01T02:57:31;35.83;;;27.70;;
15061;SDS011;7630;50.306;8.566;2023-03-01T03:01:33;33.53;;;26.17;;
15061;SDS011;7630;50.306;8.566;2023-03-01T03:05:37;35.37;;;25.23;;
15061;SDS011;7630;50.306;8.566;2023-03-01T03:09:38;33.77;;;26.97;;
15061;SDS011;7630;50.306;8.566;2023-03-01T03:13:39;35.00;;;27.87;;
15061;SDS011;7630;50.306;8.566;2023-03-01T03:17:42;36.20;;;27.83;;
15061;SDS011;7630;50.306;8.566;2023-03-01T03:21:45;31.53;;;25.70;;
15061;SDS011;7630;50.306;8.566;2023-03-01T03:25:47;32.07;;;26.77;;
15061;SDS011;7630;50.306;8.566;2023-03-01T03:29:49;36.03;;;27.77;;
15061;SDS011;7630;50.306;8.566;2023-03-01T03:33:50;29.70;;;25.37;;
15061;SDS011;7630;50.306;8.566;2023-03-01T03:37:52;34.43;;;26.73;;
15061;SDS011;7630;50.306;8.566;2023-03-01T03:42:06;40.70;;;27.57;;
15061;SDS011;7630;50.306;8.566;2023-03-01T03:46:07;38.83;;;29.67;;
15061;SDS011;7630;50.306;8.566;2023-03-01T03:50:09;34.00;;;27.60;;
15061;SDS011;7630;50.306;8.566;2023-03-01T03:54:11;40.63;;;29.80;;
15061;SDS011;7630;50.306;8.566;2023-03-01T03:58:12;38.80;;;26.37;;
15061;SDS011;7630;50.306;8.566;2023-03-01T04:02:13;37.60;;;28.27;;
15061;SDS011;7630;50.306;8.566;2023-03-01T04:06:16;34.83;;;26.57;;
15061;SDS011;7630;50.306;8.566;2023-03-01T04:10:17;29.03;;;23.30;;
15061;SDS011;7630;50.306;8.566;2023-03-01T04:14:19;33.40;;;27.23;;
15061;SDS011;7630;50.306;8.566;2023-03-01T04:18:21;31.67;;;25.67;;
15061;SDS011;7630;50.306;8.566;2023-03-01T04:22:23;32.40;;;25.47;;
15061;SDS011;7630;50.306;8.566;2023-03-01T04:26:26;39.83;;;29.40;;
15061;SDS011;7630;50.306;8.566;2023-03-01T04:30:28;38.73;;;26.77;;
15061;SDS011;7630;50.306;8.566;2023-03-01T04:34:29;32.07;;;26.47;;
15061;SDS011;7630;50.306;8.566;2023-03-01T04:38:30;38.07;;;34.33;;
15061;SDS011;7630;50.306;8.566;2023-03-01T04:42:31;33.70;;;29.10;;
15061;SDS011;7630;50.306;8.566;2023-03-01T04:46:32;37.93;;;29.93;;
15061;SDS011;7630;50.306;8.566;2023-03-01T04:50:34;36.27;;;27.40;;
15061;SDS011;7630;50.306;8.566;2023-03-01T04:54:35;38.97;;;28.27;;
15061;SDS011;7630;50.306;8.566;2023-03-01T04:58:37;34.70;;;29.43;;
15061;SDS011;7630;50.306;8.566;2023-03-01T05:02:38;32.60;;;26.40;;
15061;SDS011;7630;50.306;8.566;2023-03-01T05:06:39;34.00;;;25.83;;
15061;SDS011;7630;50.306;8.566;2023-03-01T05:10:41;33.07;;;26.47;;
15061;SDS011;7630;50.306;8.566;2023-03-01T05:14:42;33.97;;;26.57;;
15061;SDS011;7630;50.306;8.566;2023-03-01T05:18:44;35.77;;;28.03;;
15061;SDS011;7630;50.306;8.566;2023-03-01T05:22:46;35.43;;;27.17;;
15061;SDS011;7630;50.306;8.566;2023-03-01T05:26:47;37.60;;;26.80;;
15061;SDS011;7630;50.306;8.566;2023-03-01T05:30:49;32.07;;;26.87;;
15061;SDS011;7630;50.306;8.566;2023-03-01T05:34:52;34.57;;;26.50;;
15061;SDS011;7630;50.306;8.566;2023-03-01T05:38:55;32.83;;;26.63;;
15061;SDS011;7630;50.306;8.566;2023-03-01T05:42:56;31.47;;;26.53;;
15061;SDS011;7630;50.306;8.566;2023-03-01T05:46:57;32.83;;;26.77;;
15061;SDS011;7630;50.306;8.566;2023-03-01T05:50:59;36.93;;;27.30;;
15061;SDS011;7630;50.306;8.566;2023-03-01T05:55:01;45.87;;;31.87;;
15061;SDS011;7630;50.306;8.566;2023-03-01T05:59:03;38.67;;;29.60;;
15061;SDS011;7630;50.306;8.566;2023-03-01T06:03:05;31.73;;;26.37;;
15061;SDS011;7630;50.306;8.566;2023-03-01T06:07:06;32.03;;;24.77;;
15061;SDS011;7630;50.306;8.566;2023-03-01T06:11:07;39.77;;;27.07;;
15061;SDS011;7630;50.306;8.566;2023-03-01T06:15:10;32.80;;;25.73;;
15061;SDS011;7630;50.306;8.566;2023-03-01T06:19:12;34.00;;;23.57;;
15061;SDS011;7630;50.306;8.566;2023-03-01T06:23:13;31.70;;;26.40;;
15061;SDS011;7630;50.306;8.566;2023-03-01T06:27:15;33.93;;;26.27;;
15061;SDS011;7630;50.306;8.566;2023-03-01T06:31:16;32.07;;;26.50;;
15061;SDS011;7630;50.306;8.566;2023-03-01T06:35:18;33.87;;;25.57;;
15061;SDS011;7630;50.306;8.566;2023-03-01T06:39:20;34.13;;;25.83;;
15061;SDS011;7630;50.306;8.566;2023-03-01T06:43:21;32.67;;;26.03;;
15061;SDS011;7630;50.306;8.566;2023-03-01T06:47:24;32.83;;;26.77;;
15061;SDS011;7630;50.306;8.566;2023-03-01T06:51:25;34.50;;;26.53;;
15061;SDS011;7630;50.306;8.566;2023-03-01T06:55:26;30.90;;;27.60;;
15061;SDS011;7630;50.306;8.566;2023-03-01T06:59:27;35.07;;;27.80;;
15061;SDS011;7630;50.306;8.566;2023-03-01T07:03:29;34.50;;;27.37;;
15061;SDS011;7630;50.306;8.566;2023-03-01T07:07:30;29.87;;;24.93;;
15061;SDS011;7630;50.306;8.566;2023-03-01T07:11:31;37.77;;;26.53;;
15061;SDS011;7630;50.306;8.566;2023-03-01T07:15:32;33.97;;;26.77;;
15061;SDS011;7630;50.306;8.566;2023-03-01T07:19:34;41.77;;;26.70;;
15061;SDS011;7630;50.306;8.566;2023-03-01T07:23:35;34.70;;;26.37;;
15061;SDS011;7630;50.306;8.566;2023-03-01T07:27:36;29.27;;;24.87;;
15061;SDS011;7630;50.306;8.566;2023-03-01T07:31:37;33.87;;;25.77;;
15061;SDS011;7630;50.306;8.566;2023-03-01T07:35:38;29.17;;;24.00;;
15061;SDS011;7630;50.306;8.566;2023-03-01T07:39:40;30.37;;;24.37;;
15061;SDS011;7630;50.306;8.566;2023-03-01T07:43:41;31.17;;;25.30;;
15061;SDS011;7630;50.306;8.566;2023-03-01T07:47:42;25.53;;;21.17;;
15061;SDS011;7630;50.306;8.566;2023-03-01T07:51:43;32.50;;;24.10;;
15061;SDS011;7630;50.306;8.566;2023-03-01T07:55:44;28.20;;;21.93;;
15061;SDS011;7630;50.306;8.566;2023-03-01T07:59:45;35.13;;;26.80;;
15061;SDS011;7630;50.306;8.566;2023-03-01T08:03:47;28.47;;;21.23;;
15061;SDS011;7630;50.306;8.566;2023-03-01T08:07:48;32.00;;;20.13;;
15061;SDS011;7630;50.306;8.566;2023-03-01T08:11:50;25.63;;;21.17;;
15061;SDS011;7630;50.306;8.566;2023-03-01T08:15:51;36.00;;;24.70;;
15061;SDS011;7630;50.306;8.566;2023-03-01T08:19:53;30.67;;;24.30;;
15061;SDS011;7630;50.306;8.566;2023-03-01T08:23:54;27.30;;;20.43;;
15061;SDS011;7630;50.306;8.566;2023-03-01T08:27:55;30.17;;;22.53;;
15061;SDS011;7630;50.306;8.566;2023-03-01T08:31:56;24.43;;;20.63;;
15061;SDS011;7630;50.306;8.566;2023-03-01T08:36:03;32.37;;;25.37;;
15061;SDS011;7630;50.306;8.566;2023-03-01T08:40:08;19.90;;;17.00;;
15061;SDS011;7630;50.306;8.566;2023-03-01T08:44:11;22.53;;;19.90;;
15061;SDS011;7630;50.306;8.566;2023-03-01T08:48:14;17.57;;;15.70;;
15061;SDS011;7630;50.306;8.566;2023-03-01T08:52:15;25.53;;;19.17;;
15061;SDS011;7630;50.306;8.566;2023-03-01T08:56:17;26.23;;;21.83;;
15061;SDS011;7630;50.306;8.566;2023-03-01T09:00:19;22.13;;;19.73;;
15061;SDS011;7630;50.306;8.566;2023-03-01T09:04:20;25.70;;;20.27;;
15061;SDS011;7630;50.306;8.566;2023-03-01T09:08:22;21.50;;;17.77;;
15061;SDS011;7630;50.306;8.566;2023-03-01T09:12:23;32.30;;;24.40;;
15061;SDS011;7630;50.306;8.566;2023-03-01T09:16:25;23.30;;;18.17;;
15061;SDS011;7630;50.306;8.566;2023-03-01T09:20:26;23.77;;;19.00;;
15061;SDS011;7630;50.306;8.566;2023-03-01T09:24:28;26.60;;;20.37;;
15061;SDS011;7630;50.306;8.566;2023-03-01T09:28:29;21.13;;;15.63;;
15061;SDS011;7630;50.306;8.566;2023-03-01T09:32:30;27.93;;;22.77;;
15061;SDS011;7630;50.306;8.566;2023-03-01T09:36:32;28.20;;;22.50;;
15061;SDS011;7630;50.306;8.566;2023-03-01T09:40:34;27.13;;;21.63;;
15061;SDS011;7630;50.306;8.566;2023-03-01T09:48:57;26.30;;;20.30;;
15061;SDS011;7630;50.306;8.566;2023-03-01T09:53:02;18.60;;;15.03;;
15061;SDS011;7630;50.306;8.566;2023-03-01T10:05:43;20.70;;;16.97;;
15061;SDS011;7630;50.306;8.566;2023-03-01T10:09:52;19.30;;;17.17;;
15061;SDS011;7630;50.306;8.566;2023-03-01T10:18:18;21.97;;;17.17;;
15061;SDS011;7630;50.306;8.566;2023-03-01T10:30:35;26.07;;;19.73;;
15061;SDS011;7630;50.306;8.566;2023-03-01T10:34:40;27.03;;;18.73;;
15061;SDS011;7630;50.306;8.566;2023-03-01T10:38:52;23.80;;;19.50;;
15061;SDS011;7630;50.306;8.566;2023-03-01T10:42:57;22.30;;;19.80;;
15061;SDS011;7630;50.306;8.566;2023-03-01T10:47:00;20.17;;;18.13;;
15061;SDS011;7630;50.306;8.566;2023-03-01T10:51:05;26.27;;;20.87;;
15061;SDS011;7630;50.306;8.566;2023-03-01T10:59:34;21.03;;;15.10;;
15061;SDS011;7630;50.306;8.566;2023-03-01T11:03:38;24.30;;;18.87;;
15061;SDS011;7630;50.306;8.566;2023-03-01T11:07:50;24.23;;;19.37;;
15061;SDS011;7630;50.306;8.566;2023-03-01T11:11:51;21.60;;;16.97;;
15061;SDS011;7630;50.306;8.566;2023-03-01T11:16:00;21.57;;;18.53;;
15061;SDS011;7630;50.306;8.566;2023-03-01T11:24:15;16.47;;;14.67;;
15061;SDS011;7630;50.306;8.566;2023-03-01T11:28:18;19.30;;;13.60;;
15061;SDS011;7630;50.306;8.566;2023-03-01T11:32:20;16.83;;;14.70;;
15061;SDS011;7630;50.306;8.566;2023-03-01T11:36:32;20.53;;;18.20;;
15061;SDS011;7630;50.306;8.566;2023-03-01T11:40:47;16.00;;;14.10;;
15061;SDS011;7630;50.306;8.566;2023-03-01T11:45:08;18.83;;;16.47;;
15061;SDS011;7630;50.306;8.566;2023-03-01T12:02:18;21.63;;;17.43;;
15061;SDS011;7630;50.306;8.566;2023-03-01T12:06:35;25.00;;;18.33;;
15061;SDS011;7630;50.306;8.566;2023-03-01T12:27:47;19.27;;;16.63;;
15061;SDS011;7630;50.306;8.566;2023-03-01T12:32:02;20.03;;;14.33;;
15061;SDS011;7630;50.306;8.566;2023-03-01T12:40:32;16.83;;;14.37;;
15061;SDS011;7630;50.306;8.566;2023-03-01T12:49:28;13.13;;;11.23;;
15061;SDS011;7630;50.306;8.566;2023-03-01T12:53:34;17.57;;;13.53;;
15061;SDS011;7630;50.306;8.566;2023-03-01T12:57:45;13.70;;;12.43;;
15061;SDS011;7630;50.306;8.566;2023-03-01T13:18:27;17.50;;;14.73;;
15061;SDS011;7630;50.306;8.566;2023-03-01T13:22:31;18.40;;;15.13;;
15061;SDS011;7630;50.306;8.566;2023-03-01T13:26:44;16.60;;;13.83;;
15061;SDS011;7630;50.306;8.566;2023-03-01T13:30:40;16.20;;;14.37;;
15061;SDS011;7630;50.306;8.566;2023-03-01T13:34:45;15.77;;;14.17;;
15061;SDS011;7630;50.306;8.566;2023-03-01T13:38:55;14.57;;;11.77;;
15061;SDS011;7630;50.306;8.566;2023-03-01T13:42:59;16.73;;;14.23;;
15061;SDS011;7630;50.306;8.566;2023-03-01T13:51:15;13.77;;;12.40;;
15061;SDS011;7630;50.306;8.566;2023-03-01T13:59:23;19.20;;;13.00;;
15061;SDS011;7630;50.306;8.566;2023-03-01T14:03:27;11.00;;;9.93;;
15061;SDS011;7630;50.306;8.566;2023-03-01T14:07:29;23.67;;;14.70;;
15061;SDS011;7630;50.306;8.566;2023-03-01T14:20:21;14.83;;;11.00;;
15061;SDS011;7630;50.306;8.566;2023-03-01T14:24:25;14.20;;;12.70;;
15061;SDS011;7630;50.306;8.566;2023-03-01T14:28:29;14.23;;;11.47;;
15061;SDS011;7630;50.306;8.566;2023-03-01T14:32:34;19.67;;;10.77;;
15061;SDS011;7630;50.306;8.566;2023-03-01T14:36:36;12.60;;;11.30;;
15061;SDS011;7630;50.306;8.566;2023-03-01T14:40:37;9.90;;;8.87;;
15061;SDS011;7630;50.306;8.566;2023-03-01T14:44:40;13.03;;;10.67;;
15061;SDS011;7630;50.306;8.566;2023-03-01T14:48:44;17.13;;;13.83;;
15061;SDS011;7630;50.306;8.566;2023-03-01T14:52:46;12.63;;;9.90;;
15061;SDS011;7630;50.306;8.566;2023-03-01T14:56:50;13.13;;;11.67;;
15061;SDS011;7630;50.306;8.566;2023-03-01T15:00:56;14.90;;;10.93;;
15061;SDS011;7630;50.306;8.566;2023-03-01T15:05:01;14.43;;;12.80;;
15061;SDS011;7630;50.306;8.566;2023-03-01T15:09:10;14.37;;;12.87;;
15061;SDS011;7630;50.306;8.566;2023-03-01T15:13:23;14.47;;;12.93;;
15061;SDS011;7630;50.306;8.566;2023-03-01T15:17:33;13.17;;;11.90;;
15061;SDS011;7630;50.306;8.566;2023-03-01T15:21:39;19.67;;;14.93;;
15061;SDS011;7630;50.306;8.566;2023-03-01T15:25:43;17.60;;;13.70;;
15061;SDS011;7630;50.306;8.566;2023-03-01T15:29:49;15.33;;;12.60;;
15061;SDS011;7630;50.306;8.566;2023-03-01T15:34:09;24.53;;;14.63;;
15061;SDS011;7630;50.306;8.566;2023-03-01T15:46:37;12.83;;;11.53;;
15061;SDS011;7630;50.306;8.566;2023-03-01T15:50:38;11.97;;;10.27;;
15061;SDS011;7630;50.306;8.566;2023-03-01T15:54:41;14.07;;;11.17;;
15061;SDS011;7630;50.306;8.566;2023-03-01T15:58:42;18.10;;;13.63;;
15061;SDS011;7630;50.306;8.566;2023-03-01T16:02:44;13.47;;;11.77;;
15061;SDS011;7630;50.306;8.566;2023-03-01T16:06:46;11.20;;;10.00;;
15061;SDS011;7630;50.306;8.566;2023-03-01T16:10:50;14.77;;;13.27;;
15061;SDS011;7630;50.306;8.566;2023-03-01T16:14:53;12.93;;;11.60;;
15061;SDS011;7630;50.306;8.566;2023-03-01T16:18:54;10.90;;;9.90;;
15061;SDS011;7630;50.306;8.566;2023-03-01T16:23:01;14.97;;;11.13;;
15061;SDS011;7630;50.306;8.566;2023-03-01T16:27:04;13.97;;;10.60;;
15061;SDS011;7630;50.306;8.566;2023-03-01T16:31:06;15.53;;;12.00;;
15061;SDS011;7630;50.306;8.566;2023-03-01T16:35:09;12.20;;;10.93;;
15061;SDS011;7630;50.306;8.566;2023-03-01T16:39:12;13.10;;;10.47;;
15061;SDS011;7630;50.306;8.566;2023-03-01T16:43:13;14.33;;;11.63;;
15061;SDS011;7630;50.306;8.566;2023-03-01T16:47:14;13.83;;;11.97;;
15061;SDS011;7630;50.306;8.566;2023-03-01T16:51:16;13.07;;;11.77;;
15061;SDS011;7630;50.306;8.566;2023-03-01T16:55:17;13.73;;;11.23;;
15061;SDS011;7630;50.306;8.566;2023-03-01T16:59:18;11.23;;;10.10;;
15061;SDS011;7630;50.306;8.566;2023-03-01T17:03:21;12.10;;;10.90;;
15061;SDS011;7630;50.306;8.566;2023-03-01T17:07:23;14.13;;;10.80;;
15061;SDS011;7630;50.306;8.566;2023-03-01T17:11:24;13.43;;;12.03;;
15061;SDS011;7630;50.306;8.566;2023-03-01T17:15:26;12.97;;;11.23;;
15061;SDS011;7630;50.306;8.566;2023-03-01T17:19:27;13.67;;;10.93;;
15061;SDS011;7630;50.306;8.566;2023-03-01T17:23:28;20.03;;;13.33;;
15061;SDS011;7630;50.306;8.566;2023-03-01T17:27:30;14.68;;;13.28;;
15061;SDS011;7630;50.306;8.566;2023-03-01T17:31:34;15.30;;;12.43;;
15061;SDS011;7630;50.306;8.566;2023-03-01T17:35:35;13.13;;;11.83;;
15061;SDS011;7630;50.306;8.566;2023-03-01T17:39:37;14.23;;;11.50;;
15061;SDS011;7630;50.306;8.566;2023-03-01T17:43:39;14.30;;;12.53;;
15061;SDS011;7630;50.306;8.566;2023-03-01T17:47:40;15.57;;;12.17;;
15061;SDS011;7630;50.306;8.566;2023-03-01T17:51:41;15.63;;;13.83;;
15061;SDS011;7630;50.306;8.566;2023-03-01T17:55:44;14.10;;;11.33;;
15061;SDS011;7630;50.306;8.566;2023-03-01T17:59:45;14.63;;;12.87;;
15061;SDS011;7630;50.306;8.566;2023-03-01T18:03:49;13.03;;;10.57;;
15061;SDS011;7630;50.306;8.566;2023-03-01T18:07:51;15.73;;;13.27;;
15061;SDS011;7630;50.306;8.566;2023-03-01T18:11:52;15.47;;;12.37;;
15061;SDS011;7630;50.306;8.566;2023-03-01T18:15:54;14.73;;;11.37;;
15061;SDS011;7630;50.306;8.566;2023-03-01T18:19:57;12.30;;;11.10;;
15061;SDS011;7630;50.306;8.566;2023-03-01T18:23:59;14.30;;;11.30;;
15061;SDS011;7630;50.306;8.566;2023-03-01T18:28:01;16.40;;;13.00;;
15061;SDS011;7630;50.306;8.566;2023-03-01T18:32:03;19.03;;;13.53;;
15061;SDS011;7630;50.306;8.566;2023-03-01T18:36:12;19.50;;;13.33;;
15061;SDS011;7630;50.306;8.566;2023-03-01T18:40:12;17.77;;;15.17;;
15061;SDS011;7630;50.306;8.566;2023-03-01T18:44:14;17.57;;;13.80;;
15061;SDS011;7630;50.306;8.566;2023-03-01T18:48:16;17.23;;;14.57;;
15061;SDS011;7630;50.306;8.566;2023-03-01T18:52:17;17.93;;;11.53;;
15061;SDS011;7630;50.306;8.566;2023-03-01T18:56:19;17.60;;;14.07;;
15061;SDS011;7630;50.306;8.566;2023-03-01T19:00:21;18.37;;;15.40;;
15061;SDS011;7630;50.306;8.566;2023-03-01T19:04:23;18.10;;;14.53;;
15061;SDS011;7630;50.306;8.566;2023-03-01T19:08:24;19.50;;;15.73;;
15061;SDS011;7630;50.306;8.566;2023-03-01T19:12:26;13.00;;;11.10;;
15061;SDS011;7630;50.306;8.566;2023-03-01T19:16:29;15.90;;;12.23;;
15061;SDS011;7630;50.306;8.566;2023-03-01T19:20:32;15.47;;;12.77;;
15061;SDS011;7630;50.306;8.566;2023-03-01T19:24:34;17.47;;;12.50;;
15061;SDS011;7630;50.306;8.566;2023-03-01T19:28:35;16.87;;;12.87;;
15061;SDS011;7630;50.306;8.566;2023-03-01T19:32:39;13.70;;;12.07;;
15061;SDS011;7630;50.306;8.566;2023-03-01T19:36:41;14.40;;;12.90;;
15061;SDS011;7630;50.306;8.566;2023-03-01T19:40:44;12.73;;;11.43;;
15061;SDS011;7630;50.306;8.566;2023-03-01T19:44:45;15.07;;;12.10;;
15061;SDS011;7630;50.306;8.566;2023-03-01T19:48:46;15.73;;;14.20;;
15061;SDS011;7630;50.306;8.566;2023-03-01T19:52:49;22.47;;;14.83;;
15061;SDS011;7630;50.306;8.566;2023-03-01T19:56:51;17.23;;;14.70;;
15061;SDS011;7630;50.306;8.566;2023-03-01T20:00:53;15.93;;;14.23;;
15061;SDS011;7630;50.306;8.566;2023-03-01T20:04:58;21.93;;;16.40;;
15061;SDS011;7630;50.306;8.566;2023-03-01T20:09:00;18.43;;;16.73;;
15061;SDS011;7630;50.306;8.566;2023-03-01T20:13:05;16.57;;;14.87;;
15061;SDS011;7630;50.306;8.566;2023-03-01T20:17:07;21.00;;;17.03;;
15061;SDS011;7630;50.306;8.566;2023-03-01T20:21:08;17.53;;;15.63;;
15061;SDS011;7630;50.306;8.566;2023-03-01T20:25:11;18.93;;;15.43;;
15061;SDS011;7630;50.306;8.566;2023-03-01T20:29:13;19.33;;;16.83;;
15061;SDS011;7630;50.306;8.566;2023-03-01T20:33:14;18.80;;;15.70;;
15061;SDS011;7630;50.306;8.566;2023-03-01T20:37:15;17.07;;;15.20;;
15061;SDS011;7630;50.306;8.566;2023-03-01T20:41:17;19.47;;;15.30;;
15061;SDS011;7630;50.306;8.566;2023-03-01T20:45:19;18.53;;;15.17;;
15061;SDS011;7630;50.306;8.566;2023-03-01T20:49:22;18.33;;;16.50;;
15061;SDS011;7630;50.306;8.566;2023-03-01T20:53:23;16.03;;;14.27;;
15061;SDS011;7630;50.306;8.566;2023-03-01T20:57:25;18.77;;;16.77;;
15061;SDS011;7630;50.306;8.566;2023-03-01T21:01:26;23.13;;;16.50;;
15061;SDS011;7630;50.306;8.566;2023-03-01T21:05:27;20.10;;;15.03;;
15061;SDS011;7630;50.306;8.566;2023-03-01T21:09:28;19.53;;;15.87;;
15061;SDS011;7630;50.306;8.566;2023-03-01T21:13:30;18.93;;;16.90;;
15061;SDS011;7630;50.306;8.566;2023-03-01T21:17:32;21.50;;;16.50;;
15061;SDS011;7630;50.306;8.566;2023-03-01T21:21:33;19.03;;;16.07;;
15061;SDS011;7630;50.306;8.566;2023-03-01T21:25:35;19.63;;;16.83;;
15061;SDS011;7630;50.306;8.566;2023-03-01T21:29:36;20.67;;;16.80;;
15061;SDS011;7630;50.306;8.566;2023-03-01T21:33:41;19.47;;;17.37;;
15061;SDS011;7630;50.306;8.566;2023-03-01T21:37:46;20.13;;;16.87;;
15061;SDS011;7630;50.306;8.566;2023-03-01T21:41:49;19.63;;;16.30;;
15061;SDS011;7630;50.306;8.566;2023-03-01T21:45:50;18.33;;;15.03;;
15061;SDS011;7630;50.306;8.566;2023-03-01T21:49:51;22.00;;;16.37;;
15061;SDS011;7630;50.306;8.566;2023-03-01T21:53:53;20.17;;;16.33;;
15061;SDS011;7630;50.306;8.566;2023-03-01T21:57:56;18.50;;;16.30;;
15061;SDS011;7630;50.306;8.566;2023-03-01T22:01:58;19.57;;;17.53;;
15061;SDS011;7630;50.306;8.566;2023-03-01T22:06:00;20.23;;;16.30;;
15061;SDS011;7630;50.306;8.566;2023-03-01T22:10:02;22.30;;;17.23;;
15061;SDS011;7630;50.306;8.566;2023-03-01T22:14:03;32.43;;;27.53;;
15061;SDS011;7630;50.306;8.566;2023-03-01T22:18:05;23.47;;;20.30;;
15061;SDS011;7630;50.306;8.566;2023-03-01T22:22:07;25.67;;;20.50;;
15061;SDS011;7630;50.306;8.566;2023-03-01T22:26:13;24.27;;;18.03;;
15061;SDS011;7630;50.306;8.566;2023-03-01T22:30:22;22.20;;;17.00;;
15061;SDS011;7630;50.306;8.566;2023-03-01T22:34:23;23.67;;;18.83;;
15061;SDS011;7630;50.306;8.566;2023-03-01T22:38:24;21.20;;;18.70;;
15061;SDS011;7630;50.306;8.566;2023-03-01T22:42:26;21.27;;;17.47;;
15061;SDS011;7630;50.306;8.566;2023-03-01T22:46:29;33.57;;;26.47;;
15061;SDS011;7630;50.306;8.566;2023-03-01T22:50:30;29.67;;;20.47;;
15061;SDS011;7630;50.306;8.566;2023-03-01T22:54:31;26.00;;;21.97;;
15061;SDS011;7630;50.306;8.566;2023-03-01T22:58:33;20.70;;;17.63;;
15061;SDS011;7630;50.306;8.566;2023-03-01T23:02:34;33.63;;;24.47;;
15061;SDS011;7630;50.306;8.566;2023-03-01T23:06:35;21.33;;;18.13;;
15061;SDS011;7630;50.306;8.566;2023-03-01T23:10:39;27.60;;;20.27;;
15061;SDS011;7630;50.306;8.566;2023-03-01T23:14:40;24.00;;;20.63;;
15061;SDS011;7630;50.306;8.566;2023-03-01T23:18:43;21.33;;;19.13;;
15061;SDS011;7630;50.306;8.566;2023-03-01T23:22:45;23.03;;;18.63;;
15061;SDS011;7630;50.306;8.566;2023-03-01T23:26:46;22.23;;;18.17;;
15061;SDS011;7630;50.306;8.566;2023-03-01T23:30:58;22.30;;;17.77;;
15061;SDS011;7630;50.306;8.566;2023-03-01T23:34:57;32.20;;;17.83;;
15061;SDS011;7630;50.306;8.566;2023-03-01T23:39:00;24.27;;;17.97;;
15061;SDS011;7630;50.306;8.566;2023-03-01T23:43:03;24.70;;;18.63;;
15061;SDS011;7630;50.306;8.566;2023-03-01T23:47:05;23.07;;;19.63;;
15061;SDS011;7630;50.306;8.566;2023-03-01T23:51:06;24.20;;;20.60;;
15061;SDS011;7630;50.306;8.566;2023-03-01T23:55:08;24.73;;;19.10;;
15061;SDS011;7630;50.306;8.566;2023-03-01T23:59:16;25.00;;;19.97;;
